Weezie Cenac — WDH3888 — position and weather

sailwx.info

Track history (hours):
 
Tides and Currents Weather Stations Pressure Air Temp Water Temp Dewpoint Dewpoint Depression Visibility Wind Speed Wind Dir Waves Ship Positions

Weezie Cenac

Owner: Cenac Marine Services, Houma, LA. More information available from US FCC via Universal Licensing System and Coast Guard Vessel Documentation Center.

Last reported at 2018-Feb-19 17:20 UTC. Time now 2018-Feb-20 00:15 UTC.
Position N 29°45' W 095°04'.

Length 22 m; draft 1.7 m.

Type: Tug. MMSI: 367611960.

Date/timePositionNaut miles runAvg speedWind from/ knotsBaromVisibWave heightAir tempDewpointWater temp
2018-Feb-19 17:20N 29°45' W 095°04'2 5.8
2018-Feb-19 16:59N 29°44' W 095°03'3 5.9
2018-Feb-19 16:29N 29°42' W 095°00'3 6.8
2018-Feb-19 16:00N 29°39' W 094°58'4 7.3
2018-Feb-19 15:30N 29°36' W 094°57'4 7.1
2018-Feb-19 15:00N 29°33' W 094°54'4 7.5
2018-Feb-19 14:28N 29°29' W 094°52'4 7.7
2018-Feb-19 13:59N 29°26' W 094°50'4 7.7
2018-Feb-19 13:29N 29°23' W 094°48'2 3.7
2018-Feb-19 12:59N 29°23' W 094°46'2 3.2
2018-Feb-19 12:25N 29°24' W 094°44'0 0.0
2018-Feb-19 11:46N 29°24' W 094°44'0 0.0
2018-Feb-19 11:28N 29°24' W 094°44'0 0.0
2018-Feb-19 10:52N 29°24' W 094°44'0 0.0
2018-Feb-19 10:28N 29°24' W 094°44'0 0.0
2018-Feb-19 09:58N 29°24' W 094°44'0 0.0
2018-Feb-19 09:28N 29°24' W 094°44'0 0.0
2018-Feb-19 08:58N 29°24' W 094°44'0 0.0
2018-Feb-19 08:22N 29°24' W 094°44'0 0.0
2018-Feb-19 07:58N 29°24' W 094°44'0 0.0
2018-Feb-19 07:28N 29°24' W 094°44'0 0.0
2018-Feb-19 06:43N 29°24' W 094°44'0 0.0
2018-Feb-19 06:19N 29°24' W 094°44'0 0.0
2018-Feb-19 05:55N 29°24' W 094°44'0 0.0
2018-Feb-19 05:25N 29°24' W 094°44'0 0.0
2018-Feb-19 04:58N 29°24' W 094°44'0 0.0
2018-Feb-19 04:28N 29°24' W 094°44'15 2.0
2018-Feb-18 20:47N 29°32' W 094°29'1 3.8
2018-Feb-18 20:30N 29°32' W 094°28'4 4.8
2018-Feb-18 19:44N 29°35' W 094°25'1 4.6
2018-Feb-18 19:29N 29°36' W 094°25'2 3.9
2018-Feb-18 19:00N 29°36' W 094°23'1 2.3
2018-Feb-18 18:23N 29°37' W 094°21'1 2.0
2018-Feb-18 18:00N 29°37' W 094°20'0 0.0
2018-Feb-18 16:53N 29°37' W 094°21'0 0.0
2018-Feb-18 16:29N 29°37' W 094°21'0 0.2
2018-Feb-18 15:49N 29°37' W 094°20'0 0.3
2018-Feb-18 15:25N 29°37' W 094°21'0 0.0
2018-Feb-18 13:16N 29°37' W 094°20'0 0.3
2018-Feb-18 12:10N 29°37' W 094°20'0 0.0
2018-Feb-18 11:58N 29°37' W 094°20'0 0.1
2018-Feb-18 11:19N 29°37' W 094°20'2 1.9
2018-Feb-18 10:26N 29°38' W 094°18'1 3.3
2018-Feb-18 09:59N 29°39' W 094°17'1 2.9
2018-Feb-18 09:30N 29°39' W 094°15'2 3.5
2018-Feb-18 09:00N 29°40' W 094°14'1 2.6
2018-Feb-18 08:30N 29°41' W 094°12'0 0.2
2018-Feb-18 08:00N 29°41' W 094°12'1 2.4
2018-Feb-18 07:30N 29°41' W 094°11'2 4.3
2018-Feb-18 07:00N 29°42' W 094°09'1 2.4
2018-Feb-18 06:24N 29°43' W 094°07'1 2.5
2018-Feb-18 06:00N 29°44' W 094°06'2 3.7
2018-Feb-18 05:30N 29°45' W 094°05'1 2.7
2018-Feb-18 05:00N 29°45' W 094°04'0 0.6
2018-Feb-18 04:30N 29°46' W 094°03'0 0.0
2018-Feb-18 04:00N 29°46' W 094°03'0 0.0
2018-Feb-18 03:30N 29°46' W 094°03'0 0.0
2018-Feb-18 03:00N 29°46' W 094°03'1 2.6
2018-Feb-18 02:30N 29°47' W 094°02'2 4.3
2018-Feb-18 02:00N 29°48' W 094°00'2 4.6
2018-Feb-18 01:30N 29°49' W 093°58'2 4.3
2018-Feb-18 01:00N 29°51' W 093°57'4 7.1
2018-Feb-18 00:30N 29°54' W 093°54'4 7.2
2018-Feb-18 00:00N 29°57' W 093°52'3 6.3
2018-Feb-17 23:30N 29°59' W 093°49'3 6.9
2018-Feb-17 23:00N 30°01' W 093°46'3 5.9
2018-Feb-17 22:30N 30°03' W 093°43'3 5.9
2018-Feb-17 22:00N 30°04' W 093°40'3 5.2
2018-Feb-17 21:30N 30°04' W 093°37'2 4.5
2018-Feb-17 20:58N 30°04' W 093°34'2 4.3
2018-Feb-17 20:26N 30°04' W 093°32'2 4.0
2018-Feb-17 19:59N 30°04' W 093°30'2 4.3
2018-Feb-17 19:30N 30°04' W 093°27'2 4.2
2018-Feb-17 19:00N 30°04' W 093°25'2 4.0
2018-Feb-17 18:30N 30°04' W 093°23'2 3.7
2018-Feb-17 18:00N 30°04' W 093°21'2 3.2
2018-Feb-17 17:30N 30°06' W 093°20'2 4.8
2018-Feb-17 16:59N 30°08' W 093°19'0 0.3
2018-Feb-17 16:30N 30°08' W 093°19'0 0.0
2018-Feb-17 16:00N 30°08' W 093°19'0 0.0
2018-Feb-17 15:30N 30°08' W 093°19'0 0.0
2018-Feb-17 15:00N 30°08' W 093°19'0 0.0
2018-Feb-17 14:30N 30°08' W 093°19'0 0.0
2018-Feb-17 14:00N 30°08' W 093°19'0 0.0
2018-Feb-17 13:30N 30°08' W 093°19'0 0.0
2018-Feb-17 13:00N 30°08' W 093°19'0 0.0
2018-Feb-17 12:30N 30°08' W 093°19'0 0.0
2018-Feb-17 12:00N 30°08' W 093°19'0 0.0
2018-Feb-17 11:30N 30°08' W 093°19'0 0.0
2018-Feb-17 11:00N 30°08' W 093°19'0 0.0
2018-Feb-17 10:30N 30°08' W 093°19'0 0.0
2018-Feb-17 10:00N 30°08' W 093°19'0 0.0
2018-Feb-17 09:30N 30°08' W 093°19'0 0.0
2018-Feb-17 09:00N 30°08' W 093°19'0 0.0
2018-Feb-17 08:30N 30°08' W 093°19'0 0.0
2018-Feb-17 08:00N 30°08' W 093°19'0 0.0
2018-Feb-17 07:30N 30°08' W 093°19'0 0.0
2018-Feb-17 07:00N 30°08' W 093°19'0 0.0
2018-Feb-17 06:30N 30°08' W 093°19'0 0.0
2018-Feb-17 05:57N 30°08' W 093°19'0 0.0
2018-Feb-17 05:30N 30°08' W 093°19'0 0.0
2018-Feb-17 05:00N 30°08' W 093°19'0 0.0
2018-Feb-17 04:30N 30°08' W 093°19'0 0.0
2018-Feb-17 03:57N 30°08' W 093°19'0 0.0
2018-Feb-17 03:30N 30°08' W 093°19'0 0.0
2018-Feb-17 03:00N 30°08' W 093°19'0 0.0
2018-Feb-17 02:30N 30°08' W 093°19'0 0.0
2018-Feb-17 02:00N 30°08' W 093°19'0 0.0
2018-Feb-17 01:27N 30°08' W 093°19'0 0.0
2018-Feb-17 01:00N 30°08' W 093°19'0 0.0
2018-Feb-17 00:30N 30°08' W 093°19'0 0.0
2018-Feb-17 00:00N 30°08' W 093°19'0 0.0
2018-Feb-16 23:15N 30°08' W 093°19'0 0.0
2018-Feb-16 23:00N 30°08' W 093°19'0 0.0
2018-Feb-16 22:30N 30°08' W 093°19'0 0.0
2018-Feb-16 22:00N 30°08' W 093°19'0 0.0
2018-Feb-16 21:30N 30°08' W 093°19'0 0.0
2018-Feb-16 21:00N 30°08' W 093°19'0 0.0
2018-Feb-16 20:30N 30°08' W 093°19'0 0.0
2018-Feb-16 20:00N 30°08' W 093°19'0 0.0
2018-Feb-16 19:30N 30°08' W 093°19'0 0.0
2018-Feb-16 19:00N 30°08' W 093°19'0 0.0
2018-Feb-16 18:30N 30°08' W 093°19'0 0.0
2018-Feb-16 18:00N 30°08' W 093°19'0 0.0
2018-Feb-16 17:30N 30°08' W 093°19'0 0.0
2018-Feb-16 17:00N 30°08' W 093°19'0 0.0
2018-Feb-16 16:24N 30°08' W 093°19'0 0.0
2018-Feb-16 16:00N 30°08' W 093°19'0 0.0
2018-Feb-16 15:30N 30°08' W 093°19'0 0.0
2018-Feb-16 15:00N 30°08' W 093°19'0 0.0
2018-Feb-16 14:27N 30°08' W 093°19'0 0.0
2018-Feb-16 14:00N 30°08' W 093°19'0 0.3
2018-Feb-16 13:30N 30°08' W 093°19'0 0.0
2018-Feb-16 13:00N 30°08' W 093°19'0 0.0
2018-Feb-16 12:30N 30°08' W 093°19'0 0.0
2018-Feb-16 12:00N 30°08' W 093°19'0 0.0
2018-Feb-16 11:27N 30°08' W 093°19'0 0.0
2018-Feb-16 11:00N 30°08' W 093°19'0 0.0
2018-Feb-16 10:30N 30°08' W 093°19'0 0.0
2018-Feb-16 09:57N 30°08' W 093°19'0 0.0
2018-Feb-16 09:30N 30°08' W 093°19'0 0.0
2018-Feb-16 09:00N 30°08' W 093°19'0 0.0
2018-Feb-16 08:30N 30°08' W 093°19'0 0.0
2018-Feb-16 08:00N 30°08' W 093°19'0 0.0
2018-Feb-16 07:30N 30°08' W 093°19'0 0.0
2018-Feb-16 07:00N 30°08' W 093°19'0 0.0
2018-Feb-16 06:30N 30°08' W 093°19'0 0.0
2018-Feb-16 06:00N 30°08' W 093°19'0 0.0
2018-Feb-16 05:30N 30°08' W 093°19'0 0.0
2018-Feb-16 04:54N 30°08' W 093°19'0 0.0
2018-Feb-16 04:30N 30°08' W 093°19'0 0.0
2018-Feb-16 04:00N 30°08' W 093°19'0 0.0
2018-Feb-16 03:30N 30°08' W 093°19'0 0.0
2018-Feb-16 02:57N 30°08' W 093°19'0 0.0
2018-Feb-16 02:30N 30°08' W 093°19'0 0.0
2018-Feb-16 02:00N 30°08' W 093°19'0 0.0
2018-Feb-16 01:27N 30°08' W 093°19'1 2.0
2018-Feb-16 01:00N 30°07' W 093°20'3 6.1
2018-Feb-16 00:29N 30°04' W 093°21'0 1.0
2018-Feb-16 00:00N 30°05' W 093°20'3 6.7
2018-Feb-15 23:30N 30°08' W 093°20'3 6.8
2018-Feb-15 23:00N 30°11' W 093°18'4 7.1
2018-Feb-15 22:30N 30°14' W 093°15'2 3.7
2018-Feb-15 22:00N 30°12' W 093°17'3 6.7
2018-Feb-15 21:30N 30°10' W 093°19'3 6.4
2018-Feb-15 21:00N 30°06' W 093°20'2 2.8
2018-Feb-15 20:28N 30°05' W 093°20'0 0.0
2018-Feb-15 19:58N 30°05' W 093°20'0 0.0
2018-Feb-15 19:28N 30°05' W 093°20'1 1.2
2018-Feb-15 19:00N 30°05' W 093°20'1 1.0
2018-Feb-15 18:28N 30°04' W 093°21'1 3.1
2018-Feb-15 18:00N 30°04' W 093°22'1 1.5
2018-Feb-15 17:30N 30°04' W 093°23'3 6.0
2018-Feb-15 17:00N 30°04' W 093°26'1 2.2
2018-Feb-15 16:29N 30°04' W 093°28'0 0.0
2018-Feb-15 15:59N 30°04' W 093°28'0 0.1
2018-Feb-15 15:29N 30°04' W 093°28'0 0.1
2018-Feb-15 14:59N 30°04' W 093°28'0 0.0
2018-Feb-15 14:29N 30°04' W 093°28'0 0.0
2018-Feb-15 13:59N 30°04' W 093°28'0 0.0
2018-Feb-15 13:29N 30°04' W 093°28'0 0.0
2018-Feb-15 12:59N 30°04' W 093°28'0 0.0
2018-Feb-15 12:29N 30°04' W 093°28'0 0.0
2018-Feb-15 11:59N 30°04' W 093°28'0 0.0
2018-Feb-15 11:29N 30°04' W 093°28'0 0.0
2018-Feb-15 10:59N 30°04' W 093°28'0 0.0
2018-Feb-15 10:29N 30°04' W 093°28'0 0.0
2018-Feb-15 09:59N 30°04' W 093°28'0 0.0
2018-Feb-15 09:26N 30°04' W 093°28'0 0.0
2018-Feb-15 08:59N 30°04' W 093°28'0 0.0
2018-Feb-15 08:29N 30°04' W 093°28'0 0.0
2018-Feb-15 07:59N 30°04' W 093°28'0 0.0
2018-Feb-15 07:29N 30°04' W 093°28'0 0.0
2018-Feb-15 06:59N 30°04' W 093°28'0 0.0
2018-Feb-15 06:20N 30°04' W 093°28'0 0.0
2018-Feb-15 05:59N 30°04' W 093°28'0 0.0
2018-Feb-15 05:29N 30°04' W 093°28'0 0.0
2018-Feb-15 04:56N 30°04' W 093°28'0 0.0
2018-Feb-15 04:29N 30°04' W 093°28'0 0.1
2018-Feb-15 03:59N 30°04' W 093°28'0 0.0
2018-Feb-15 03:29N 30°04' W 093°28'0 0.0
2018-Feb-15 02:47N 30°04' W 093°28'0 0.1
2018-Feb-15 02:17N 30°04' W 093°28'0 0.0
2018-Feb-15 01:59N 30°04' W 093°28'0 0.0
2018-Feb-15 01:29N 30°04' W 093°28'0 0.0
2018-Feb-15 00:59N 30°04' W 093°28'0 0.2
2018-Feb-15 00:31N 30°04' W 093°28'3 5.6
2018-Feb-15 00:01N 30°04' W 093°31'3 5.6
2018-Feb-14 23:28N 30°04' W 093°35'4 5.6
2018-Feb-14 22:49N 30°04' W 093°39'2 7.1
2018-Feb-14 22:30N 30°03' W 093°41'3 6.5
2018-Feb-14 22:00N 30°02' W 093°44'3 6.9
2018-Feb-14 21:30N 29°59' W 093°47'3 5.3
2018-Feb-14 21:00N 29°58' W 093°50'2 4.3
2018-Feb-14 20:30N 29°57' W 093°52'0 0.8
2018-Feb-14 20:00N 29°57' W 093°52'0 0.0
2018-Feb-14 19:30N 29°57' W 093°52'0 0.0
2018-Feb-14 19:00N 29°57' W 093°52'0 0.0
2018-Feb-14 18:30N 29°57' W 093°52'0 0.0
2018-Feb-14 18:00N 29°57' W 093°52'0 0.0
2018-Feb-14 17:30N 29°57' W 093°52'0 0.0
2018-Feb-14 17:00N 29°57' W 093°52'0 0.0
2018-Feb-14 16:30N 29°57' W 093°52'0 0.0
2018-Feb-14 16:00N 29°57' W 093°52'0 0.0
2018-Feb-14 15:30N 29°57' W 093°52'0 0.0
2018-Feb-14 15:00N 29°57' W 093°52'0 0.0
2018-Feb-14 14:30N 29°57' W 093°52'0 0.0
2018-Feb-14 14:00N 29°57' W 093°52'0 0.0
2018-Feb-14 13:30N 29°57' W 093°52'0 0.0
2018-Feb-14 13:00N 29°57' W 093°52'0 0.0
2018-Feb-14 12:30N 29°57' W 093°52'0 0.0
2018-Feb-14 12:00N 29°57' W 093°52'0 0.0
2018-Feb-14 11:30N 29°57' W 093°52'0 0.0
2018-Feb-14 11:00N 29°57' W 093°52'0 0.0
2018-Feb-14 10:30N 29°57' W 093°52'0 0.0
2018-Feb-14 10:00N 29°57' W 093°52'0 0.0
2018-Feb-14 09:30N 29°57' W 093°52'0 0.0
2018-Feb-14 09:00N 29°57' W 093°52'0 0.0
2018-Feb-14 08:30N 29°57' W 093°52'0 0.0
2018-Feb-14 08:00N 29°57' W 093°52'0 0.0
2018-Feb-14 07:30N 29°57' W 093°52'0 0.0
2018-Feb-14 07:00N 29°57' W 093°52'0 0.0
2018-Feb-14 06:30N 29°57' W 093°52'0 0.0
2018-Feb-14 05:57N 29°57' W 093°52'0 0.0
2018-Feb-14 05:30N 29°57' W 093°52'0 0.0
2018-Feb-14 05:00N 29°57' W 093°52'0 0.9
2018-Feb-14 04:30N 29°57' W 093°52'1 2.4
2018-Feb-14 04:00N 29°58' W 093°52'0 0.0
2018-Feb-14 03:27N 29°58' W 093°52'0 0.0
2018-Feb-14 03:00N 29°58' W 093°52'0 0.0
2018-Feb-14 02:30N 29°58' W 093°52'0 0.0
2018-Feb-14 01:57N 29°58' W 093°52'0 0.0
2018-Feb-14 01:30N 29°58' W 093°52'0 0.0
2018-Feb-14 01:00N 29°58' W 093°52'0 0.0
2018-Feb-14 00:30N 29°58' W 093°52'0 0.0
2018-Feb-14 00:00N 29°58' W 093°52'0 0.0
2018-Feb-13 23:30N 29°58' W 093°52'0 0.0
2018-Feb-13 23:00N 29°58' W 093°52'0 0.0
2018-Feb-13 22:30N 29°58' W 093°52'0 0.0
2018-Feb-13 22:00N 29°58' W 093°52'0 0.0
2018-Feb-13 21:30N 29°58' W 093°52'0 0.0
2018-Feb-13 21:00N 29°58' W 093°52'0 0.0
2018-Feb-13 20:30N 29°58' W 093°52'0 0.0
2018-Feb-13 19:57N 29°58' W 093°52'0 0.0
2018-Feb-13 19:30N 29°58' W 093°52'0 0.0
2018-Feb-13 19:00N 29°58' W 093°52'0 0.0
2018-Feb-13 18:30N 29°58' W 093°52'0 0.0
2018-Feb-13 18:00N 29°58' W 093°52'0 0.0
2018-Feb-13 17:30N 29°58' W 093°52'0 0.0
2018-Feb-13 17:00N 29°58' W 093°52'0 0.0
2018-Feb-13 16:30N 29°58' W 093°52'0 0.0
2018-Feb-13 15:57N 29°58' W 093°52'0 0.0
2018-Feb-13 15:30N 29°58' W 093°52'0 0.0
2018-Feb-13 15:00N 29°58' W 093°52'0 0.0
2018-Feb-13 14:27N 29°58' W 093°52'0 0.0
2018-Feb-13 14:00N 29°58' W 093°52'0 0.0
2018-Feb-13 13:30N 29°58' W 093°52'0 0.0
2018-Feb-13 13:00N 29°58' W 093°52'0 0.0
2018-Feb-13 12:30N 29°58' W 093°52'0 0.0
2018-Feb-13 12:00N 29°58' W 093°52'0 0.0
2018-Feb-13 11:30N 29°58' W 093°52'0 0.0
2018-Feb-13 11:00N 29°58' W 093°52'0 0.0
2018-Feb-13 10:30N 29°58' W 093°52'0 0.0
2018-Feb-13 10:00N 29°58' W 093°52'0 0.0
2018-Feb-13 09:30N 29°58' W 093°52'0 0.0
2018-Feb-13 09:00N 29°58' W 093°52'0 0.0
2018-Feb-13 08:30N 29°58' W 093°52'0 0.0
2018-Feb-13 08:00N 29°58' W 093°52'0 0.0
2018-Feb-13 07:30N 29°58' W 093°52'0 0.0
2018-Feb-13 07:00N 29°58' W 093°52'0 0.0
2018-Feb-13 06:30N 29°58' W 093°52'0 0.0
2018-Feb-13 06:00N 29°58' W 093°52'0 0.0
2018-Feb-13 05:27N 29°58' W 093°52'0 0.0
2018-Feb-13 05:00N 29°58' W 093°52'0 0.0
2018-Feb-13 04:30N 29°58' W 093°52'0 0.0
2018-Feb-13 04:00N 29°58' W 093°52'0 0.0
2018-Feb-13 03:30N 29°58' W 093°52'0 0.0
2018-Feb-13 03:00N 29°58' W 093°52'0 0.0
2018-Feb-13 02:30N 29°58' W 093°52'0 0.0
2018-Feb-13 01:57N 29°58' W 093°52'0 0.0
2018-Feb-13 01:30N 29°58' W 093°52'1 2.7
2018-Feb-13 01:00N 29°59' W 093°53'0 0.1
2018-Feb-13 00:30N 29°59' W 093°53'1 2.5
2018-Feb-12 23:58N 29°58' W 093°52'0 0.0
2018-Feb-12 23:28N 29°58' W 093°52'0 0.0
2018-Feb-12 22:58N 29°58' W 093°52'0 0.0
2018-Feb-12 22:28N 29°58' W 093°52'0 0.5
2018-Feb-12 22:00N 29°58' W 093°51'0 0.4
2018-Feb-12 21:30N 29°58' W 093°52'0 0.0
2018-Feb-12 21:00N 29°58' W 093°52'0 0.0
2018-Feb-12 20:30N 29°58' W 093°52'0 0.0
2018-Feb-12 20:00N 29°58' W 093°52'0 0.0
2018-Feb-12 19:30N 29°58' W 093°52'0 0.0
2018-Feb-12 19:00N 29°58' W 093°52'0 0.0
2018-Feb-12 18:30N 29°58' W 093°52'0 0.0
2018-Feb-12 18:00N 29°58' W 093°52'0 0.0
2018-Feb-12 17:30N 29°58' W 093°52'0 0.0
2018-Feb-12 17:00N 29°58' W 093°52'0 0.0
2018-Feb-12 16:30N 29°58' W 093°52'0 0.0
2018-Feb-12 15:57N 29°58' W 093°52'0 0.0
2018-Feb-12 15:30N 29°58' W 093°52'0 0.0
2018-Feb-12 14:57N 29°58' W 093°52'0 0.0
2018-Feb-12 14:30N 29°58' W 093°52'0 0.0
2018-Feb-12 14:00N 29°58' W 093°52'0 0.0
2018-Feb-12 13:30N 29°58' W 093°52'0 0.0
2018-Feb-12 13:00N 29°58' W 093°52'0 0.0
2018-Feb-12 12:27N 29°58' W 093°52'0 0.0
2018-Feb-12 12:00N 29°58' W 093°52'0 0.0
2018-Feb-12 11:30N 29°58' W 093°52'0 0.0
2018-Feb-12 11:00N 29°58' W 093°52'0 0.0
2018-Feb-12 10:30N 29°58' W 093°52'0 0.0
2018-Feb-12 10:00N 29°58' W 093°52'0 0.0
2018-Feb-12 09:30N 29°58' W 093°52'0 0.0
2018-Feb-12 09:00N 29°58' W 093°52'0 0.0
2018-Feb-12 08:30N 29°58' W 093°52'0 0.0
2018-Feb-12 08:00N 29°58' W 093°52'0 0.0
2018-Feb-12 07:30N 29°58' W 093°52'0 0.0
2018-Feb-12 06:58N 29°58' W 093°52'1 1.7
2018-Feb-12 06:29N 29°57' W 093°52'0 0.1
2018-Feb-12 06:00N 29°57' W 093°52'0 0.7
2018-Feb-12 05:29N 29°58' W 093°52'1 1.3
2018-Feb-12 05:00N 29°57' W 093°52'1 1.3
2018-Feb-12 04:29N 29°58' W 093°52'0 0.1
2018-Feb-12 03:53N 29°58' W 093°52'1 1.4
2018-Feb-12 03:29N 29°58' W 093°52'0 0.0
2018-Feb-12 02:59N 29°58' W 093°52'0 0.0
2018-Feb-12 02:29N 29°58' W 093°52'0 0.0
2018-Feb-12 01:59N 29°58' W 093°52'0 0.0
2018-Feb-12 01:29N 29°58' W 093°52'0 0.0
2018-Feb-12 00:59N 29°58' W 093°52'0 0.0
2018-Feb-12 00:26N 29°58' W 093°52'0 0.0
2018-Feb-11 23:59N 29°58' W 093°52'0 0.0
2018-Feb-11 23:29N 29°58' W 093°52'0 0.0
2018-Feb-11 22:56N 29°58' W 093°52'0 0.0
2018-Feb-11 22:29N 29°58' W 093°52'0 0.0
2018-Feb-11 21:59N 29°58' W 093°52'0 0.0
2018-Feb-11 21:29N 29°58' W 093°52'0 0.0
2018-Feb-11 20:59N 29°58' W 093°52'0 0.0
2018-Feb-11 20:26N 29°58' W 093°52'0 0.0
2018-Feb-11 19:59N 29°58' W 093°52'0 0.0
2018-Feb-11 19:29N 29°58' W 093°52'0 0.0
2018-Feb-11 18:59N 29°58' W 093°52'0 0.0
2018-Feb-11 18:29N 29°58' W 093°52'0 0.0
2018-Feb-11 17:59N 29°58' W 093°52'0 0.0
2018-Feb-11 17:29N 29°58' W 093°52'0 0.0
2018-Feb-11 16:59N 29°58' W 093°52'0 0.0
2018-Feb-11 16:29N 29°58' W 093°52'0 0.0
2018-Feb-11 15:59N 29°58' W 093°52'0 0.0
2018-Feb-11 15:29N 29°58' W 093°52'0 0.0
2018-Feb-11 14:59N 29°58' W 093°52'0 0.0
2018-Feb-11 14:26N 29°58' W 093°52'0 0.0
2018-Feb-11 13:59N 29°58' W 093°52'0 0.0
2018-Feb-11 13:26N 29°58' W 093°52'0 0.0
2018-Feb-11 12:59N 29°58' W 093°52'0 0.0
2018-Feb-11 12:29N 29°58' W 093°52'0 0.0
2018-Feb-11 11:59N 29°58' W 093°52'0 0.0
2018-Feb-11 11:29N 29°58' W 093°52'0 0.0
2018-Feb-11 10:59N 29°58' W 093°52'0 0.0
2018-Feb-11 10:29N 29°58' W 093°52'0 0.0
2018-Feb-11 09:59N 29°58' W 093°52'0 0.0
2018-Feb-11 09:29N 29°58' W 093°52'0 0.0
2018-Feb-11 08:59N 29°58' W 093°52'0 0.0
2018-Feb-11 08:29N 29°58' W 093°52'0 0.0
2018-Feb-11 07:59N 29°58' W 093°52'0 0.0
2018-Feb-11 07:29N 29°58' W 093°52'0 0.0
2018-Feb-11 06:59N 29°58' W 093°52'0 0.0
2018-Feb-11 06:29N 29°58' W 093°52'0 0.0
2018-Feb-11 05:56N 29°58' W 093°52'0 0.0
2018-Feb-11 05:29N 29°58' W 093°52'0 0.0
2018-Feb-11 04:59N 29°58' W 093°52'0 0.0
2018-Feb-11 04:29N 29°58' W 093°52'0 0.0
2018-Feb-11 03:59N 29°58' W 093°52'0 0.0
2018-Feb-11 03:29N 29°58' W 093°52'0 0.0
2018-Feb-11 02:59N 29°58' W 093°52'0 0.0
2018-Feb-11 02:29N 29°58' W 093°52'0 0.0
2018-Feb-11 01:59N 29°58' W 093°52'0 0.0
2018-Feb-11 01:29N 29°58' W 093°52'0 0.0
2018-Feb-11 00:59N 29°58' W 093°52'0 0.0
2018-Feb-11 00:29N 29°58' W 093°52'0 0.0
2018-Feb-10 23:56N 29°58' W 093°52'0 0.0
2018-Feb-10 23:29N 29°58' W 093°52'0 0.0
2018-Feb-10 22:59N 29°58' W 093°52'0 0.0
2018-Feb-10 22:23N 29°58' W 093°52'0 0.0
2018-Feb-10 21:59N 29°58' W 093°52'0 0.0
2018-Feb-10 21:29N 29°58' W 093°52'0 0.0
2018-Feb-10 20:59N 29°58' W 093°52'0 0.0
2018-Feb-10 20:29N 29°58' W 093°52'0 0.0
2018-Feb-10 19:59N 29°58' W 093°52'0 0.0
2018-Feb-10 19:29N 29°58' W 093°52'0 0.0
2018-Feb-10 18:59N 29°58' W 093°52'0 0.0
2018-Feb-10 18:29N 29°58' W 093°52'0 0.0
2018-Feb-10 17:59N 29°58' W 093°52'0 0.0
2018-Feb-10 17:29N 29°58' W 093°52'0 0.0
2018-Feb-10 16:59N 29°58' W 093°52'0 0.0
2018-Feb-10 16:29N 29°58' W 093°52'0 0.0
2018-Feb-10 15:59N 29°58' W 093°52'0 0.0
2018-Feb-10 15:29N 29°58' W 093°52'0 0.0
2018-Feb-10 14:59N 29°58' W 093°52'0 0.0
2018-Feb-10 14:29N 29°58' W 093°52'0 0.0
2018-Feb-10 13:59N 29°58' W 093°52'0 0.0
2018-Feb-10 13:29N 29°58' W 093°52'0 0.0
2018-Feb-10 12:56N 29°58' W 093°52'0 0.0
2018-Feb-10 12:29N 29°58' W 093°52'0 0.0
2018-Feb-10 11:59N 29°58' W 093°52'0 0.0
2018-Feb-10 11:28N 29°58' W 093°52'0 0.0
2018-Feb-10 10:59N 29°58' W 093°52'0 0.0
2018-Feb-10 10:28N 29°58' W 093°52'0 0.0
2018-Feb-10 09:59N 29°58' W 093°52'0 0.0
2018-Feb-10 09:29N 29°58' W 093°52'0 0.0
2018-Feb-10 08:58N 29°58' W 093°52'0 0.0
2018-Feb-10 08:29N 29°58' W 093°52'0 0.0
2018-Feb-10 07:59N 29°58' W 093°52'0 0.0
2018-Feb-10 07:29N 29°58' W 093°52'0 0.0
2018-Feb-10 06:59N 29°58' W 093°52'0 0.0
2018-Feb-10 06:29N 29°58' W 093°52'0 0.0
2018-Feb-10 05:58N 29°58' W 093°52'0 0.0
2018-Feb-10 05:29N 29°58' W 093°52'0 0.0
2018-Feb-10 04:58N 29°58' W 093°52'0 0.0
2018-Feb-10 04:29N 29°58' W 093°52'0 0.0
2018-Feb-10 03:59N 29°58' W 093°52'0 0.0
2018-Feb-10 03:28N 29°58' W 093°52'0 0.0
2018-Feb-10 02:59N 29°58' W 093°52'0 0.0
2018-Feb-10 02:29N 29°58' W 093°52'0 0.0
2018-Feb-10 01:58N 29°58' W 093°52'0 0.0
2018-Feb-10 01:29N 29°58' W 093°52'0 0.0
2018-Feb-10 00:58N 29°58' W 093°52'0 0.0
2018-Feb-10 00:26N 29°58' W 093°52'0 0.0
2018-Feb-09 23:58N 29°58' W 093°52'0 0.0
2018-Feb-09 23:28N 29°58' W 093°52'0 0.0
2018-Feb-09 22:58N 29°58' W 093°52'0 0.0
2018-Feb-09 22:43N 29°58' W 093°52'  
Track history (hours):
 
Tides and Currents Weather Stations Pressure Air Temp Water Temp Dewpoint Dewpoint Depression Visibility Wind Speed Wind Dir Waves Ship Positions

Weezie Cenac

Owner: Cenac Marine Services, Houma, LA. More information available from US FCC via Universal Licensing System and Coast Guard Vessel Documentation Center.

Last reported at 2018-Feb-19 17:20 UTC. Time now 2018-Feb-20 00:15 UTC.
Position N 29°45' W 095°04'.

Length 22 m; draft 1.7 m.

Type: Tug. MMSI: 367611960.

Date/timePositionNaut miles runAvg speedWind from/ knotsBaromVisibWave heightAir tempDewpointWater temp
2018-Feb-19 17:20N 29°45' W 095°04'2 5.8
2018-Feb-19 16:59N 29°44' W 095°03'3 5.9
2018-Feb-19 16:29N 29°42' W 095°00'3 6.8
2018-Feb-19 16:00N 29°39' W 094°58'4 7.3
2018-Feb-19 15:30N 29°36' W 094°57'4 7.1
2018-Feb-19 15:00N 29°33' W 094°54'4 7.5
2018-Feb-19 14:28N 29°29' W 094°52'4 7.7
2018-Feb-19 13:59N 29°26' W 094°50'4 7.7
2018-Feb-19 13:29N 29°23' W 094°48'2 3.7
2018-Feb-19 12:59N 29°23' W 094°46'2 3.2
2018-Feb-19 12:25N 29°24' W 094°44'0 0.0
2018-Feb-19 11:46N 29°24' W 094°44'0 0.0
2018-Feb-19 11:28N 29°24' W 094°44'0 0.0
2018-Feb-19 10:52N 29°24' W 094°44'0 0.0
2018-Feb-19 10:28N 29°24' W 094°44'0 0.0
2018-Feb-19 09:58N 29°24' W 094°44'0 0.0
2018-Feb-19 09:28N 29°24' W 094°44'0 0.0
2018-Feb-19 08:58N 29°24' W 094°44'0 0.0
2018-Feb-19 08:22N 29°24' W 094°44'0 0.0
2018-Feb-19 07:58N 29°24' W 094°44'0 0.0
2018-Feb-19 07:28N 29°24' W 094°44'0 0.0
2018-Feb-19 06:43N 29°24' W 094°44'0 0.0
2018-Feb-19 06:19N 29°24' W 094°44'0 0.0
2018-Feb-19 05:55N 29°24' W 094°44'0 0.0
2018-Feb-19 05:25N 29°24' W 094°44'0 0.0
2018-Feb-19 04:58N 29°24' W 094°44'0 0.0
2018-Feb-19 04:28N 29°24' W 094°44'15 2.0
2018-Feb-18 20:47N 29°32' W 094°29'1 3.8
2018-Feb-18 20:30N 29°32' W 094°28'4 4.8
2018-Feb-18 19:44N 29°35' W 094°25'1 4.6
2018-Feb-18 19:29N 29°36' W 094°25'2 3.9
2018-Feb-18 19:00N 29°36' W 094°23'1 2.3
2018-Feb-18 18:23N 29°37' W 094°21'1 2.0
2018-Feb-18 18:00N 29°37' W 094°20'0 0.0
2018-Feb-18 16:53N 29°37' W 094°21'0 0.0
2018-Feb-18 16:29N 29°37' W 094°21'0 0.2
2018-Feb-18 15:49N 29°37' W 094°20'0 0.3
2018-Feb-18 15:25N 29°37' W 094°21'0 0.0
2018-Feb-18 13:16N 29°37' W 094°20'0 0.3
2018-Feb-18 12:10N 29°37' W 094°20'0 0.0
2018-Feb-18 11:58N 29°37' W 094°20'0 0.1
2018-Feb-18 11:19N 29°37' W 094°20'2 1.9
2018-Feb-18 10:26N 29°38' W 094°18'1 3.3
2018-Feb-18 09:59N 29°39' W 094°17'1 2.9
2018-Feb-18 09:30N 29°39' W 094°15'2 3.5
2018-Feb-18 09:00N 29°40' W 094°14'1 2.6
2018-Feb-18 08:30N 29°41' W 094°12'0 0.2
2018-Feb-18 08:00N 29°41' W 094°12'1 2.4
2018-Feb-18 07:30N 29°41' W 094°11'2 4.3
2018-Feb-18 07:00N 29°42' W 094°09'1 2.4
2018-Feb-18 06:24N 29°43' W 094°07'1 2.5
2018-Feb-18 06:00N 29°44' W 094°06'2 3.7
2018-Feb-18 05:30N 29°45' W 094°05'1 2.7
2018-Feb-18 05:00N 29°45' W 094°04'0 0.6
2018-Feb-18 04:30N 29°46' W 094°03'0 0.0
2018-Feb-18 04:00N 29°46' W 094°03'0 0.0
2018-Feb-18 03:30N 29°46' W 094°03'0 0.0
2018-Feb-18 03:00N 29°46' W 094°03'1 2.6
2018-Feb-18 02:30N 29°47' W 094°02'2 4.3
2018-Feb-18 02:00N 29°48' W 094°00'2 4.6
2018-Feb-18 01:30N 29°49' W 093°58'2 4.3
2018-Feb-18 01:00N 29°51' W 093°57'4 7.1
2018-Feb-18 00:30N 29°54' W 093°54'4 7.2
2018-Feb-18 00:00N 29°57' W 093°52'3 6.3
2018-Feb-17 23:30N 29°59' W 093°49'3 6.9
2018-Feb-17 23:00N 30°01' W 093°46'3 5.9
2018-Feb-17 22:30N 30°03' W 093°43'3 5.9
2018-Feb-17 22:00N 30°04' W 093°40'3 5.2
2018-Feb-17 21:30N 30°04' W 093°37'2 4.5
2018-Feb-17 20:58N 30°04' W 093°34'2 4.3
2018-Feb-17 20:26N 30°04' W 093°32'2 4.0
2018-Feb-17 19:59N 30°04' W 093°30'2 4.3
2018-Feb-17 19:30N 30°04' W 093°27'2 4.2
2018-Feb-17 19:00N 30°04' W 093°25'2 4.0
2018-Feb-17 18:30N 30°04' W 093°23'2 3.7
2018-Feb-17 18:00N 30°04' W 093°21'2 3.2
2018-Feb-17 17:30N 30°06' W 093°20'2 4.8
2018-Feb-17 16:59N 30°08' W 093°19'0 0.3
2018-Feb-17 16:30N 30°08' W 093°19'0 0.0
2018-Feb-17 16:00N 30°08' W 093°19'0 0.0
2018-Feb-17 15:30N 30°08' W 093°19'0 0.0
2018-Feb-17 15:00N 30°08' W 093°19'0 0.0
2018-Feb-17 14:30N 30°08' W 093°19'0 0.0
2018-Feb-17 14:00N 30°08' W 093°19'0 0.0
2018-Feb-17 13:30N 30°08' W 093°19'0 0.0
2018-Feb-17 13:00N 30°08' W 093°19'0 0.0
2018-Feb-17 12:30N 30°08' W 093°19'0 0.0
2018-Feb-17 12:00N 30°08' W 093°19'0 0.0
2018-Feb-17 11:30N 30°08' W 093°19'0 0.0
2018-Feb-17 11:00N 30°08' W 093°19'0 0.0
2018-Feb-17 10:30N 30°08' W 093°19'0 0.0
2018-Feb-17 10:00N 30°08' W 093°19'0 0.0
2018-Feb-17 09:30N 30°08' W 093°19'0 0.0
2018-Feb-17 09:00N 30°08' W 093°19'0 0.0
2018-Feb-17 08:30N 30°08' W 093°19'0 0.0
2018-Feb-17 08:00N 30°08' W 093°19'0 0.0
2018-Feb-17 07:30N 30°08' W 093°19'0 0.0
2018-Feb-17 07:00N 30°08' W 093°19'0 0.0
2018-Feb-17 06:30N 30°08' W 093°19'0 0.0
2018-Feb-17 05:57N 30°08' W 093°19'0 0.0
2018-Feb-17 05:30N 30°08' W 093°19'0 0.0
2018-Feb-17 05:00N 30°08' W 093°19'0 0.0
2018-Feb-17 04:30N 30°08' W 093°19'0 0.0
2018-Feb-17 03:57N 30°08' W 093°19'0 0.0
2018-Feb-17 03:30N 30°08' W 093°19'0 0.0
2018-Feb-17 03:00N 30°08' W 093°19'0 0.0
2018-Feb-17 02:30N 30°08' W 093°19'0 0.0
2018-Feb-17 02:00N 30°08' W 093°19'0 0.0
2018-Feb-17 01:27N 30°08' W 093°19'0 0.0
2018-Feb-17 01:00N 30°08' W 093°19'0 0.0
2018-Feb-17 00:30N 30°08' W 093°19'0 0.0
2018-Feb-17 00:00N 30°08' W 093°19'0 0.0
2018-Feb-16 23:15N 30°08' W 093°19'0 0.0
2018-Feb-16 23:00N 30°08' W 093°19'0 0.0
2018-Feb-16 22:30N 30°08' W 093°19'0 0.0
2018-Feb-16 22:00N 30°08' W 093°19'0 0.0
2018-Feb-16 21:30N 30°08' W 093°19'0 0.0
2018-Feb-16 21:00N 30°08' W 093°19'0 0.0
2018-Feb-16 20:30N 30°08' W 093°19'0 0.0
2018-Feb-16 20:00N 30°08' W 093°19'0 0.0
2018-Feb-16 19:30N 30°08' W 093°19'0 0.0
2018-Feb-16 19:00N 30°08' W 093°19'0 0.0
2018-Feb-16 18:30N 30°08' W 093°19'0 0.0
2018-Feb-16 18:00N 30°08' W 093°19'0 0.0
2018-Feb-16 17:30N 30°08' W 093°19'0 0.0
2018-Feb-16 17:00N 30°08' W 093°19'0 0.0
2018-Feb-16 16:24N 30°08' W 093°19'0 0.0
2018-Feb-16 16:00N 30°08' W 093°19'0 0.0
2018-Feb-16 15:30N 30°08' W 093°19'0 0.0
2018-Feb-16 15:00N 30°08' W 093°19'0 0.0
2018-Feb-16 14:27N 30°08' W 093°19'0 0.0
2018-Feb-16 14:00N 30°08' W 093°19'0 0.3
2018-Feb-16 13:30N 30°08' W 093°19'0 0.0
2018-Feb-16 13:00N 30°08' W 093°19'0 0.0
2018-Feb-16 12:30N 30°08' W 093°19'0 0.0
2018-Feb-16 12:00N 30°08' W 093°19'0 0.0
2018-Feb-16 11:27N 30°08' W 093°19'0 0.0
2018-Feb-16 11:00N 30°08' W 093°19'0 0.0
2018-Feb-16 10:30N 30°08' W 093°19'0 0.0
2018-Feb-16 09:57N 30°08' W 093°19'0 0.0
2018-Feb-16 09:30N 30°08' W 093°19'0 0.0
2018-Feb-16 09:00N 30°08' W 093°19'0 0.0
2018-Feb-16 08:30N 30°08' W 093°19'0 0.0
2018-Feb-16 08:00N 30°08' W 093°19'0 0.0
2018-Feb-16 07:30N 30°08' W 093°19'0 0.0
2018-Feb-16 07:00N 30°08' W 093°19'0 0.0
2018-Feb-16 06:30N 30°08' W 093°19'0 0.0
2018-Feb-16 06:00N 30°08' W 093°19'0 0.0
2018-Feb-16 05:30N 30°08' W 093°19'0 0.0
2018-Feb-16 04:54N 30°08' W 093°19'0 0.0
2018-Feb-16 04:30N 30°08' W 093°19'0 0.0
2018-Feb-16 04:00N 30°08' W 093°19'0 0.0
2018-Feb-16 03:30N 30°08' W 093°19'0 0.0
2018-Feb-16 02:57N 30°08' W 093°19'0 0.0
2018-Feb-16 02:30N 30°08' W 093°19'0 0.0
2018-Feb-16 02:00N 30°08' W 093°19'0 0.0
2018-Feb-16 01:27N 30°08' W 093°19'1 2.0
2018-Feb-16 01:00N 30°07' W 093°20'3 6.1
2018-Feb-16 00:29N 30°04' W 093°21'0 1.0
2018-Feb-16 00:00N 30°05' W 093°20'3 6.7
2018-Feb-15 23:30N 30°08' W 093°20'3 6.8
2018-Feb-15 23:00N 30°11' W 093°18'4 7.1
2018-Feb-15 22:30N 30°14' W 093°15'2 3.7
2018-Feb-15 22:00N 30°12' W 093°17'3 6.7
2018-Feb-15 21:30N 30°10' W 093°19'3 6.4
2018-Feb-15 21:00N 30°06' W 093°20'2 2.8
2018-Feb-15 20:28N 30°05' W 093°20'0 0.0
2018-Feb-15 19:58N 30°05' W 093°20'0 0.0
2018-Feb-15 19:28N 30°05' W 093°20'1 1.2
2018-Feb-15 19:00N 30°05' W 093°20'1 1.0
2018-Feb-15 18:28N 30°04' W 093°21'1 3.1
2018-Feb-15 18:00N 30°04' W 093°22'1 1.5
2018-Feb-15 17:30N 30°04' W 093°23'3 6.0
2018-Feb-15 17:00N 30°04' W 093°26'1 2.2
2018-Feb-15 16:29N 30°04' W 093°28'0 0.0
2018-Feb-15 15:59N 30°04' W 093°28'0 0.1
2018-Feb-15 15:29N 30°04' W 093°28'0 0.1
2018-Feb-15 14:59N 30°04' W 093°28'0 0.0
2018-Feb-15 14:29N 30°04' W 093°28'0 0.0
2018-Feb-15 13:59N 30°04' W 093°28'0 0.0
2018-Feb-15 13:29N 30°04' W 093°28'0 0.0
2018-Feb-15 12:59N 30°04' W 093°28'0 0.0
2018-Feb-15 12:29N 30°04' W 093°28'0 0.0
2018-Feb-15 11:59N 30°04' W 093°28'0 0.0
2018-Feb-15 11:29N 30°04' W 093°28'0 0.0
2018-Feb-15 10:59N 30°04' W 093°28'0 0.0
2018-Feb-15 10:29N 30°04' W 093°28'0 0.0
2018-Feb-15 09:59N 30°04' W 093°28'0 0.0
2018-Feb-15 09:26N 30°04' W 093°28'0 0.0
2018-Feb-15 08:59N 30°04' W 093°28'0 0.0
2018-Feb-15 08:29N 30°04' W 093°28'0 0.0
2018-Feb-15 07:59N 30°04' W 093°28'0 0.0
2018-Feb-15 07:29N 30°04' W 093°28'0 0.0
2018-Feb-15 06:59N 30°04' W 093°28'0 0.0
2018-Feb-15 06:20N 30°04' W 093°28'0 0.0
2018-Feb-15 05:59N 30°04' W 093°28'0 0.0
2018-Feb-15 05:29N 30°04' W 093°28'0 0.0
2018-Feb-15 04:56N 30°04' W 093°28'0 0.0
2018-Feb-15 04:29N 30°04' W 093°28'0 0.1
2018-Feb-15 03:59N 30°04' W 093°28'0 0.0
2018-Feb-15 03:29N 30°04' W 093°28'0 0.0
2018-Feb-15 02:47N 30°04' W 093°28'0 0.1
2018-Feb-15 02:17N 30°04' W 093°28'0 0.0
2018-Feb-15 01:59N 30°04' W 093°28'0 0.0
2018-Feb-15 01:29N 30°04' W 093°28'0 0.0
2018-Feb-15 00:59N 30°04' W 093°28'0 0.2
2018-Feb-15 00:31N 30°04' W 093°28'3 5.6
2018-Feb-15 00:01N 30°04' W 093°31'3 5.6
2018-Feb-14 23:28N 30°04' W 093°35'4 5.6
2018-Feb-14 22:49N 30°04' W 093°39'2 7.1
2018-Feb-14 22:30N 30°03' W 093°41'3 6.5
2018-Feb-14 22:00N 30°02' W 093°44'3 6.9
2018-Feb-14 21:30N 29°59' W 093°47'3 5.3
2018-Feb-14 21:00N 29°58' W 093°50'2 4.3
2018-Feb-14 20:30N 29°57' W 093°52'0 0.8
2018-Feb-14 20:00N 29°57' W 093°52'0 0.0
2018-Feb-14 19:30N 29°57' W 093°52'0 0.0
2018-Feb-14 19:00N 29°57' W 093°52'0 0.0
2018-Feb-14 18:30N 29°57' W 093°52'0 0.0
2018-Feb-14 18:00N 29°57' W 093°52'0 0.0
2018-Feb-14 17:30N 29°57' W 093°52'0 0.0
2018-Feb-14 17:00N 29°57' W 093°52'0 0.0
2018-Feb-14 16:30N 29°57' W 093°52'0 0.0
2018-Feb-14 16:00N 29°57' W 093°52'0 0.0
2018-Feb-14 15:30N 29°57' W 093°52'0 0.0
2018-Feb-14 15:00N 29°57' W 093°52'0 0.0
2018-Feb-14 14:30N 29°57' W 093°52'0 0.0
2018-Feb-14 14:00N 29°57' W 093°52'0 0.0
2018-Feb-14 13:30N 29°57' W 093°52'0 0.0
2018-Feb-14 13:00N 29°57' W 093°52'0 0.0
2018-Feb-14 12:30N 29°57' W 093°52'0 0.0
2018-Feb-14 12:00N 29°57' W 093°52'0 0.0
2018-Feb-14 11:30N 29°57' W 093°52'0 0.0
2018-Feb-14 11:00N 29°57' W 093°52'0 0.0
2018-Feb-14 10:30N 29°57' W 093°52'0 0.0
2018-Feb-14 10:00N 29°57' W 093°52'0 0.0
2018-Feb-14 09:30N 29°57' W 093°52'0 0.0
2018-Feb-14 09:00N 29°57' W 093°52'0 0.0
2018-Feb-14 08:30N 29°57' W 093°52'0 0.0
2018-Feb-14 08:00N 29°57' W 093°52'0 0.0
2018-Feb-14 07:30N 29°57' W 093°52'0 0.0
2018-Feb-14 07:00N 29°57' W 093°52'0 0.0
2018-Feb-14 06:30N 29°57' W 093°52'0 0.0
2018-Feb-14 05:57N 29°57' W 093°52'0 0.0
2018-Feb-14 05:30N 29°57' W 093°52'0 0.0
2018-Feb-14 05:00N 29°57' W 093°52'0 0.9
2018-Feb-14 04:30N 29°57' W 093°52'1 2.4
2018-Feb-14 04:00N 29°58' W 093°52'0 0.0
2018-Feb-14 03:27N 29°58' W 093°52'0 0.0
2018-Feb-14 03:00N 29°58' W 093°52'0 0.0
2018-Feb-14 02:30N 29°58' W 093°52'0 0.0
2018-Feb-14 01:57N 29°58' W 093°52'0 0.0
2018-Feb-14 01:30N 29°58' W 093°52'0 0.0
2018-Feb-14 01:00N 29°58' W 093°52'0 0.0
2018-Feb-14 00:30N 29°58' W 093°52'0 0.0
2018-Feb-14 00:00N 29°58' W 093°52'0 0.0
2018-Feb-13 23:30N 29°58' W 093°52'0 0.0
2018-Feb-13 23:00N 29°58' W 093°52'0 0.0
2018-Feb-13 22:30N 29°58' W 093°52'0 0.0
2018-Feb-13 22:00N 29°58' W 093°52'0 0.0
2018-Feb-13 21:30N 29°58' W 093°52'0 0.0
2018-Feb-13 21:00N 29°58' W 093°52'0 0.0
2018-Feb-13 20:30N 29°58' W 093°52'0 0.0
2018-Feb-13 19:57N 29°58' W 093°52'0 0.0
2018-Feb-13 19:30N 29°58' W 093°52'0 0.0
2018-Feb-13 19:00N 29°58' W 093°52'0 0.0
2018-Feb-13 18:30N 29°58' W 093°52'0 0.0
2018-Feb-13 18:00N 29°58' W 093°52'0 0.0
2018-Feb-13 17:30N 29°58' W 093°52'0 0.0
2018-Feb-13 17:00N 29°58' W 093°52'0 0.0
2018-Feb-13 16:30N 29°58' W 093°52'0 0.0
2018-Feb-13 15:57N 29°58' W 093°52'0 0.0
2018-Feb-13 15:30N 29°58' W 093°52'0 0.0
2018-Feb-13 15:00N 29°58' W 093°52'0 0.0
2018-Feb-13 14:27N 29°58' W 093°52'0 0.0
2018-Feb-13 14:00N 29°58' W 093°52'0 0.0
2018-Feb-13 13:30N 29°58' W 093°52'0 0.0
2018-Feb-13 13:00N 29°58' W 093°52'0 0.0
2018-Feb-13 12:30N 29°58' W 093°52'0 0.0
2018-Feb-13 12:00N 29°58' W 093°52'0 0.0
2018-Feb-13 11:30N 29°58' W 093°52'0 0.0
2018-Feb-13 11:00N 29°58' W 093°52'0 0.0
2018-Feb-13 10:30N 29°58' W 093°52'0 0.0
2018-Feb-13 10:00N 29°58' W 093°52'0 0.0
2018-Feb-13 09:30N 29°58' W 093°52'0 0.0
2018-Feb-13 09:00N 29°58' W 093°52'0 0.0
2018-Feb-13 08:30N 29°58' W 093°52'0 0.0
2018-Feb-13 08:00N 29°58' W 093°52'0 0.0
2018-Feb-13 07:30N 29°58' W 093°52'0 0.0
2018-Feb-13 07:00N 29°58' W 093°52'0 0.0
2018-Feb-13 06:30N 29°58' W 093°52'0 0.0
2018-Feb-13 06:00N 29°58' W 093°52'0 0.0
2018-Feb-13 05:27N 29°58' W 093°52'0 0.0
2018-Feb-13 05:00N 29°58' W 093°52'0 0.0
2018-Feb-13 04:30N 29°58' W 093°52'0 0.0
2018-Feb-13 04:00N 29°58' W 093°52'0 0.0
2018-Feb-13 03:30N 29°58' W 093°52'0 0.0
2018-Feb-13 03:00N 29°58' W 093°52'0 0.0
2018-Feb-13 02:30N 29°58' W 093°52'0 0.0
2018-Feb-13 01:57N 29°58' W 093°52'0 0.0
2018-Feb-13 01:30N 29°58' W 093°52'1 2.7
2018-Feb-13 01:00N 29°59' W 093°53'0 0.1
2018-Feb-13 00:30N 29°59' W 093°53'1 2.5
2018-Feb-12 23:58N 29°58' W 093°52'0 0.0
2018-Feb-12 23:28N 29°58' W 093°52'0 0.0
2018-Feb-12 22:58N 29°58' W 093°52'0 0.0
2018-Feb-12 22:28N 29°58' W 093°52'0 0.5
2018-Feb-12 22:00N 29°58' W 093°51'0 0.4
2018-Feb-12 21:30N 29°58' W 093°52'0 0.0
2018-Feb-12 21:00N 29°58' W 093°52'0 0.0
2018-Feb-12 20:30N 29°58' W 093°52'0 0.0
2018-Feb-12 20:00N 29°58' W 093°52'0 0.0
2018-Feb-12 19:30N 29°58' W 093°52'0 0.0
2018-Feb-12 19:00N 29°58' W 093°52'0 0.0
2018-Feb-12 18:30N 29°58' W 093°52'0 0.0
2018-Feb-12 18:00N 29°58' W 093°52'0 0.0
2018-Feb-12 17:30N 29°58' W 093°52'0 0.0
2018-Feb-12 17:00N 29°58' W 093°52'0 0.0
2018-Feb-12 16:30N 29°58' W 093°52'0 0.0
2018-Feb-12 15:57N 29°58' W 093°52'0 0.0
2018-Feb-12 15:30N 29°58' W 093°52'0 0.0
2018-Feb-12 14:57N 29°58' W 093°52'0 0.0
2018-Feb-12 14:30N 29°58' W 093°52'0 0.0
2018-Feb-12 14:00N 29°58' W 093°52'0 0.0
2018-Feb-12 13:30N 29°58' W 093°52'0 0.0
2018-Feb-12 13:00N 29°58' W 093°52'0 0.0
2018-Feb-12 12:27N 29°58' W 093°52'0 0.0
2018-Feb-12 12:00N 29°58' W 093°52'0 0.0
2018-Feb-12 11:30N 29°58' W 093°52'0 0.0
2018-Feb-12 11:00N 29°58' W 093°52'0 0.0
2018-Feb-12 10:30N 29°58' W 093°52'0 0.0
2018-Feb-12 10:00N 29°58' W 093°52'0 0.0
2018-Feb-12 09:30N 29°58' W 093°52'0 0.0
2018-Feb-12 09:00N 29°58' W 093°52'0 0.0
2018-Feb-12 08:30N 29°58' W 093°52'0 0.0
2018-Feb-12 08:00N 29°58' W 093°52'0 0.0
2018-Feb-12 07:30N 29°58' W 093°52'0 0.0
2018-Feb-12 06:58N 29°58' W 093°52'1 1.7
2018-Feb-12 06:29N 29°57' W 093°52'0 0.1
2018-Feb-12 06:00N 29°57' W 093°52'0 0.7
2018-Feb-12 05:29N 29°58' W 093°52'1 1.3
2018-Feb-12 05:00N 29°57' W 093°52'1 1.3
2018-Feb-12 04:29N 29°58' W 093°52'0 0.1
2018-Feb-12 03:53N 29°58' W 093°52'1 1.4
2018-Feb-12 03:29N 29°58' W 093°52'0 0.0
2018-Feb-12 02:59N 29°58' W 093°52'0 0.0
2018-Feb-12 02:29N 29°58' W 093°52'0 0.0
2018-Feb-12 01:59N 29°58' W 093°52'0 0.0
2018-Feb-12 01:29N 29°58' W 093°52'0 0.0
2018-Feb-12 00:59N 29°58' W 093°52'0 0.0
2018-Feb-12 00:26N 29°58' W 093°52'0 0.0
2018-Feb-11 23:59N 29°58' W 093°52'0 0.0
2018-Feb-11 23:29N 29°58' W 093°52'0 0.0
2018-Feb-11 22:56N 29°58' W 093°52'0 0.0
2018-Feb-11 22:29N 29°58' W 093°52'0 0.0
2018-Feb-11 21:59N 29°58' W 093°52'0 0.0
2018-Feb-11 21:29N 29°58' W 093°52'0 0.0
2018-Feb-11 20:59N 29°58' W 093°52'0 0.0
2018-Feb-11 20:26N 29°58' W 093°52'0 0.0
2018-Feb-11 19:59N 29°58' W 093°52'0 0.0
2018-Feb-11 19:29N 29°58' W 093°52'0 0.0
2018-Feb-11 18:59N 29°58' W 093°52'0 0.0
2018-Feb-11 18:29N 29°58' W 093°52'0 0.0
2018-Feb-11 17:59N 29°58' W 093°52'0 0.0
2018-Feb-11 17:29N 29°58' W 093°52'0 0.0
2018-Feb-11 16:59N 29°58' W 093°52'0 0.0
2018-Feb-11 16:29N 29°58' W 093°52'0 0.0
2018-Feb-11 15:59N 29°58' W 093°52'0 0.0
2018-Feb-11 15:29N 29°58' W 093°52'0 0.0
2018-Feb-11 14:59N 29°58' W 093°52'0 0.0
2018-Feb-11 14:26N 29°58' W 093°52'0 0.0
2018-Feb-11 13:59N 29°58' W 093°52'0 0.0
2018-Feb-11 13:26N 29°58' W 093°52'0 0.0
2018-Feb-11 12:59N 29°58' W 093°52'0 0.0
2018-Feb-11 12:29N 29°58' W 093°52'0 0.0
2018-Feb-11 11:59N 29°58' W 093°52'0 0.0
2018-Feb-11 11:29N 29°58' W 093°52'0 0.0
2018-Feb-11 10:59N 29°58' W 093°52'0 0.0
2018-Feb-11 10:29N 29°58' W 093°52'0 0.0
2018-Feb-11 09:59N 29°58' W 093°52'0 0.0
2018-Feb-11 09:29N 29°58' W 093°52'0 0.0
2018-Feb-11 08:59N 29°58' W 093°52'0 0.0
2018-Feb-11 08:29N 29°58' W 093°52'0 0.0
2018-Feb-11 07:59N 29°58' W 093°52'0 0.0
2018-Feb-11 07:29N 29°58' W 093°52'0 0.0
2018-Feb-11 06:59N 29°58' W 093°52'0 0.0
2018-Feb-11 06:29N 29°58' W 093°52'0 0.0
2018-Feb-11 05:56N 29°58' W 093°52'0 0.0
2018-Feb-11 05:29N 29°58' W 093°52'0 0.0
2018-Feb-11 04:59N 29°58' W 093°52'0 0.0
2018-Feb-11 04:29N 29°58' W 093°52'0 0.0
2018-Feb-11 03:59N 29°58' W 093°52'0 0.0
2018-Feb-11 03:29N 29°58' W 093°52'0 0.0
2018-Feb-11 02:59N 29°58' W 093°52'0 0.0
2018-Feb-11 02:29N 29°58' W 093°52'0 0.0
2018-Feb-11 01:59N 29°58' W 093°52'0 0.0
2018-Feb-11 01:29N 29°58' W 093°52'0 0.0
2018-Feb-11 00:59N 29°58' W 093°52'0 0.0
2018-Feb-11 00:29N 29°58' W 093°52'0 0.0
2018-Feb-10 23:56N 29°58' W 093°52'0 0.0
2018-Feb-10 23:29N 29°58' W 093°52'0 0.0
2018-Feb-10 22:59N 29°58' W 093°52'0 0.0
2018-Feb-10 22:23N 29°58' W 093°52'0 0.0
2018-Feb-10 21:59N 29°58' W 093°52'0 0.0
2018-Feb-10 21:29N 29°58' W 093°52'0 0.0
2018-Feb-10 20:59N 29°58' W 093°52'0 0.0
2018-Feb-10 20:29N 29°58' W 093°52'0 0.0
2018-Feb-10 19:59N 29°58' W 093°52'0 0.0
2018-Feb-10 19:29N 29°58' W 093°52'0 0.0
2018-Feb-10 18:59N 29°58' W 093°52'0 0.0
2018-Feb-10 18:29N 29°58' W 093°52'0 0.0
2018-Feb-10 17:59N 29°58' W 093°52'0 0.0
2018-Feb-10 17:29N 29°58' W 093°52'0 0.0
2018-Feb-10 16:59N 29°58' W 093°52'0 0.0
2018-Feb-10 16:29N 29°58' W 093°52'0 0.0
2018-Feb-10 15:59N 29°58' W 093°52'0 0.0
2018-Feb-10 15:29N 29°58' W 093°52'0 0.0
2018-Feb-10 14:59N 29°58' W 093°52'0 0.0
2018-Feb-10 14:29N 29°58' W 093°52'0 0.0
2018-Feb-10 13:59N 29°58' W 093°52'0 0.0
2018-Feb-10 13:29N 29°58' W 093°52'0 0.0
2018-Feb-10 12:56N 29°58' W 093°52'0 0.0
2018-Feb-10 12:29N 29°58' W 093°52'0 0.0
2018-Feb-10 11:59N 29°58' W 093°52'0 0.0
2018-Feb-10 11:28N 29°58' W 093°52'0 0.0
2018-Feb-10 10:59N 29°58' W 093°52'0 0.0
2018-Feb-10 10:28N 29°58' W 093°52'0 0.0
2018-Feb-10 09:59N 29°58' W 093°52'0 0.0
2018-Feb-10 09:29N 29°58' W 093°52'0 0.0
2018-Feb-10 08:58N 29°58' W 093°52'0 0.0
2018-Feb-10 08:29N 29°58' W 093°52'0 0.0
2018-Feb-10 07:59N 29°58' W 093°52'0 0.0
2018-Feb-10 07:29N 29°58' W 093°52'0 0.0
2018-Feb-10 06:59N 29°58' W 093°52'0 0.0
2018-Feb-10 06:29N 29°58' W 093°52'0 0.0
2018-Feb-10 05:58N 29°58' W 093°52'0 0.0
2018-Feb-10 05:29N 29°58' W 093°52'0 0.0
2018-Feb-10 04:58N 29°58' W 093°52'0 0.0
2018-Feb-10 04:29N 29°58' W 093°52'0 0.0
2018-Feb-10 03:59N 29°58' W 093°52'0 0.0
2018-Feb-10 03:28N 29°58' W 093°52'0 0.0
2018-Feb-10 02:59N 29°58' W 093°52'0 0.0
2018-Feb-10 02:29N 29°58' W 093°52'0 0.0
2018-Feb-10 01:58N 29°58' W 093°52'0 0.0
2018-Feb-10 01:29N 29°58' W 093°52'0 0.0
2018-Feb-10 00:58N 29°58' W 093°52'0 0.0
2018-Feb-10 00:26N 29°58' W 093°52'0 0.0
2018-Feb-09 23:58N 29°58' W 093°52'0 0.0
2018-Feb-09 23:28N 29°58' W 093°52'0 0.0
2018-Feb-09 22:58N 29°58' W 093°52'0 0.0
2018-Feb-09 22:43N 29°58' W 093°52'  

Dump ship's entire track history